Terminal Aerodrome Forecast
Issued by NWS Miami, FL

Home | Current Version | Previous Version | Text Only | Print | Product List | Glossary On
Versions: 1 2 3 4 5 6 7 8 9 10 11 12 13 14 15 16 17 18 19 20 21 22 23 24 25 26 27 28 29 30 31 32 33 34 35 36 37 38 39 40 41 42 43 44 45 46 47 48 49 50
000
FTUS42 KMFL 231653 AAD
TAFFLL
TAF AMD
KFLL 231653Z 2317/2412 17011KT 6SM -SHRA SCT015 BKN035 OVC050
      TEMPO 2317/2318 VRB06KT 1SM TSRA SCT005 BKN015CB
     FM232300 24005KT P6SM VCSH FEW015 SCT030 BKN120
     FM240600 VRB05KT P6SM FEW250=

USA.gov is the U.S. government's official web portal to all federal, state and local government web resources and services.